Time;durP1;ratioP1;P1;durP2;ratioP2;P2;SDS_P1;SDS_P2;PMS_P1;PMS_P2;Temp;Humidity;BMP_temperature;BMP_pressure;BME280_temperature;BME280_humidity;BME280_pressure;Samples;Min_cycle;Max_cycle;Signal;HPM_P1;HPM_P2
2024/03/17 00:01:50;;;;;;;7.95;4.82;;;7.00;99.90;;;;;;5020748;28;20104;-86
2024/03/17 00:04:16;;;;;;;7.65;4.43;;;7.00;99.90;;;;;;4996484;28;20049;-87
2024/03/17 00:06:41;;;;;;;8.25;4.75;;;7.00;99.90;;;;;;5007679;28;20543;-87
2024/03/17 00:09:09;;;;;;;8.07;4.47;;;7.10;99.90;;;;;;5006789;28;20036;-87
2024/03/17 00:11:35;;;;;;;9.52;4.70;;;7.10;99.90;;;;;;5018003;28;20045;-87
2024/03/17 00:14:02;;;;;;;9.00;4.90;;;7.20;99.90;;;;;;5026647;28;20125;-86
2024/03/17 00:16:27;;;;;;;8.60;4.30;;;7.20;99.90;;;;;;5012231;28;20076;-86
2024/03/17 00:18:53;;;;;;;8.20;4.40;;;7.20;99.90;;;;;;4992244;28;20132;-87
2024/03/17 00:21:19;;;;;;;6.53;4.25;;;7.20;99.90;;;;;;5000842;28;20033;-87
2024/03/17 00:23:51;;;;;;;7.65;4.50;;;7.20;99.90;;;;;;5017688;28;20033;-87
2024/03/17 00:26:19;;;;;;;7.72;4.32;;;7.20;99.90;;;;;;4982896;28;20080;-87
2024/03/17 00:28:48;;;;;;;7.20;4.28;;;7.30;99.90;;;;;;5013790;28;20038;-87
2024/03/17 00:31:14;;;;;;;5.93;4.43;;;7.20;99.90;;;;;;5010967;28;20026;-88
2024/03/17 00:33:40;;;;;;;6.22;4.05;;;7.30;99.90;;;;;;4992860;28;20103;-87
2024/03/17 00:36:06;;;;;;;8.93;4.55;;;7.30;99.90;;;;;;5011126;28;20021;-87
2024/03/17 00:38:32;;;;;;;9.73;4.75;;;7.30;99.90;;;;;;5016659;28;20025;-87
2024/03/17 00:40:59;;;;;;;6.20;3.95;;;7.30;99.90;;;;;;5012206;28;20035;-86
2024/03/17 00:43:25;;;;;;;7.13;4.68;;;7.30;99.90;;;;;;5016943;28;20116;-88
2024/03/17 00:45:53;;;;;;;9.25;4.63;;;7.30;99.90;;;;;;5000062;28;20418;-87
2024/03/17 00:48:19;;;;;;;12.15;5.00;;;7.30;99.90;;;;;;5000230;28;20537;-87
2024/03/17 00:50:45;;;;;;;5.93;4.10;;;7.40;99.90;;;;;;5012144;28;20013;-86
2024/03/17 00:53:11;;;;;;;9.98;4.65;;;7.30;99.90;;;;;;4981060;28;20038;-87
2024/03/17 00:55:38;;;;;;;8.68;4.68;;;7.40;99.90;;;;;;4990614;28;20429;-87
2024/03/17 00:58:04;;;;;;;7.45;4.30;;;7.40;99.90;;;;;;5034410;28;20084;-87
2024/03/17 01:00:32;;;;;;;8.05;4.70;;;7.30;99.90;;;;;;5018123;28;20030;-87
2024/03/17 01:02:58;;;;;;;8.60;4.30;;;7.40;99.90;;;;;;5024663;28;20018;-87
2024/03/17 01:05:24;;;;;;;9.45;4.65;;;7.40;99.90;;;;;;5026886;28;20030;-86
2024/03/17 01:07:50;;;;;;;8.77;5.03;;;7.30;99.90;;;;;;5000275;28;20022;-87
2024/03/17 01:10:15;;;;;;;8.82;4.40;;;7.30;99.90;;;;;;5023633;28;20032;-87
2024/03/17 01:12:41;;;;;;;11.48;4.60;;;7.30;99.90;;;;;;5019377;28;20127;-87
2024/03/17 01:15:08;;;;;;;7.40;4.32;;;7.30;99.90;;;;;;5011481;28;20420;-87
2024/03/17 01:17:34;;;;;;;8.27;4.35;;;7.30;99.90;;;;;;5016068;28;20053;-86
2024/03/17 01:19:59;;;;;;;6.53;4.45;;;7.30;99.90;;;;;;5015742;28;20041;-87
2024/03/17 01:22:25;;;;;;;7.05;4.68;;;7.30;99.90;;;;;;5016729;28;20029;-87
2024/03/17 01:24:51;;;;;;;6.00;4.18;;;7.30;99.90;;;;;;5032139;28;20038;-86
2024/03/17 01:27:17;;;;;;;10.05;4.40;;;7.30;99.90;;;;;;5037537;28;20059;-87
2024/03/17 01:29:45;;;;;;;5.38;4.18;;;7.30;99.90;;;;;;5032141;28;20115;-87
2024/03/17 01:32:11;;;;;;;7.07;4.30;;;7.30;99.90;;;;;;5039217;28;20469;-87
2024/03/17 01:34:38;;;;;;;6.05;4.18;;;7.30;99.90;;;;;;5028777;28;20047;-87
2024/03/17 01:37:04;;;;;;;7.38;4.53;;;7.20;99.90;;;;;;5055830;28;20016;-86
2024/03/17 01:39:30;;;;;;;9.30;4.55;;;7.20;99.90;;;;;;5042897;28;20049;-81
2024/03/17 01:41:59;;;;;;;9.00;4.93;;;7.20;99.90;;;;;;5077192;28;20028;-80
2024/03/17 01:44:38;;;;;;;8.77;4.60;;;7.20;99.90;;;;;;5055467;28;20032;-82
2024/03/17 01:47:04;;;;;;;7.85;4.97;;;7.10;99.90;;;;;;5020965;28;20056;-83
2024/03/17 01:49:31;;;;;;;12.50;5.43;;;7.20;99.90;;;;;;5036015;28;20036;-83
2024/03/17 01:51:56;;;;;;;9.15;4.75;;;7.20;99.90;;;;;;5036296;28;20040;-83
2024/03/17 01:54:22;;;;;;;7.00;4.93;;;7.20;99.90;;;;;;5035812;28;20033;-82
2024/03/17 01:56:48;;;;;;;9.52;5.07;;;7.20;99.90;;;;;;5019729;28;20481;-82
2024/03/17 01:59:14;;;;;;;7.80;4.70;;;7.20;99.90;;;;;;5019055;28;20124;-82
2024/03/17 02:01:40;;;;;;;6.97;5.10;;;7.20;99.90;;;;;;5019475;28;20451;-83
2024/03/17 02:04:06;;;;;;;7.25;5.15;;;7.10;99.90;;;;;;5035936;28;20040;-82
2024/03/17 02:06:32;;;;;;;10.30;5.25;;;7.10;99.90;;;;;;5036059;28;20484;-83
2024/03/17 02:09:01;;;;;;;8.50;5.38;;;7.10;99.90;;;;;;5019692;28;20037;-83
2024/03/17 02:11:30;;;;;;;8.75;4.95;;;7.10;99.90;;;;;;5035672;28;20032;-81
2024/03/17 02:13:56;;;;;;;10.52;5.38;;;7.20;99.90;;;;;;5053811;28;20033;-82
2024/03/17 02:16:23;;;;;;;8.23;4.95;;;7.10;99.90;;;;;;5035359;28;20049;-81
2024/03/17 02:18:49;;;;;;;9.02;5.68;;;7.10;99.90;;;;;;5035763;28;20469;-83
2024/03/17 02:21:15;;;;;;;10.30;5.70;;;7.20;99.90;;;;;;5055863;28;20078;-83
2024/03/17 02:23:44;;;;;;;9.23;6.20;;;7.10;99.90;;;;;;5022840;28;20475;-82
2024/03/17 02:26:10;;;;;;;9.77;5.72;;;7.10;99.90;;;;;;5039601;28;20033;-83
2024/03/17 02:28:44;;;;;;;9.20;5.97;;;7.10;99.90;;;;;;5057383;28;20021;-84
2024/03/17 02:31:11;;;;;;;8.27;6.00;;;7.10;99.90;;;;;;5039609;28;20465;-82
2024/03/17 02:33:37;;;;;;;9.27;6.07;;;7.10;99.90;;;;;;5057261;28;20040;-83
2024/03/17 02:36:07;;;;;;;8.50;6.10;;;7.10;99.90;;;;;;5022815;28;20021;-82
2024/03/17 02:41:18;;;;;;;7.90;5.97;;;7.00;99.90;;;;;;5056933;28;20140;-82
2024/03/17 02:43:45;;;;;;;9.63;6.22;;;7.00;99.90;;;;;;5056635;28;20033;-82
2024/03/17 02:46:15;;;;;;;10.50;6.43;;;7.00;99.90;;;;;;5022371;28;20025;-83
2024/03/17 02:48:50;;;;;;;9.93;6.50;;;6.90;99.90;;;;;;5039173;28;20021;-82
2024/03/17 02:51:20;;;;;;;9.82;6.70;;;6.90;99.90;;;;;;5039237;28;20456;-83
2024/03/17 02:53:48;;;;;;;10.20;5.50;;;6.90;99.90;;;;;;5057149;28;20028;-82
2024/03/17 02:56:16;;;;;;;8.02;5.68;;;6.90;99.90;;;;;;5024471;28;20031;-83
2024/03/17 02:58:42;;;;;;;7.97;5.65;;;6.90;99.90;;;;;;5060286;28;20005;-82
2024/03/17 03:01:09;;;;;;;7.63;5.78;;;6.90;99.90;;;;;;5063464;28;20055;-80
2024/03/17 03:03:35;;;;;;;10.32;5.97;;;6.90;99.90;;;;;;5046966;28;20033;-83
2024/03/17 03:06:04;;;;;;;9.40;5.78;;;6.90;99.90;;;;;;5046999;28;20031;-82
2024/03/17 03:08:30;;;;;;;7.72;5.43;;;6.90;99.90;;;;;;5063505;28;20017;-82
2024/03/17 03:10:56;;;;;;;8.15;5.47;;;6.90;99.90;;;;;;5058622;28;20025;-83
2024/03/17 03:13:22;;;;;;;10.25;6.45;;;7.00;99.90;;;;;;5023154;28;20480;-82
2024/03/17 03:15:51;;;;;;;13.15;5.90;;;7.00;99.90;;;;;;5021511;28;20033;-82
2024/03/17 03:18:17;;;;;;;11.05;6.45;;;7.00;99.90;;;;;;5038132;28;20033;-83
2024/03/17 03:20:43;;;;;;;9.15;6.10;;;7.00;99.90;;;;;;5038869;28;20438;-82
2024/03/17 03:23:09;;;;;;;10.18;5.43;;;7.00;99.90;;;;;;5038522;28;20032;-82
2024/03/17 03:25:35;;;;;;;9.57;5.70;;;7.00;99.90;;;;;;5022962;28;20366;-82
2024/03/17 03:28:04;;;;;;;8.00;6.10;;;7.10;99.90;;;;;;5058541;28;20036;-82
2024/03/17 03:30:29;;;;;;;9.05;5.60;;;7.20;99.90;;;;;;5059248;28;20168;-82
2024/03/17 03:32:55;;;;;;;8.52;5.63;;;7.20;99.90;;;;;;5040540;28;20148;-80
2024/03/17 03:35:21;;;;;;;9.63;6.10;;;7.20;99.90;;;;;;5039696;28;20043;-83
2024/03/17 03:37:46;;;;;;;8.63;5.95;;;7.20;99.90;;;;;;5021648;28;20397;-83
2024/03/17 03:40:16;;;;;;;8.93;6.32;;;7.30;99.90;;;;;;5037836;28;20029;-81
2024/03/17 03:42:45;;;;;;;9.98;5.82;;;7.30;99.90;;;;;;5056159;28;20025;-83
2024/03/17 03:45:14;;;;;;;8.52;6.07;;;7.40;99.90;;;;;;5038153;28;20048;-82
2024/03/17 03:47:40;;;;;;;9.20;6.25;;;7.40;99.90;;;;;;5021754;28;20029;-82
2024/03/17 03:50:10;;;;;;;10.32;5.90;;;7.40;99.90;;;;;;5037872;28;20040;-83
2024/03/17 03:52:40;;;;;;;7.53;6.35;;;7.40;99.90;;;;;;5021422;28;20029;-83
2024/03/17 03:55:10;;;;;;;10.05;6.50;;;7.50;99.90;;;;;;5055990;28;20115;-83
2024/03/17 03:57:38;;;;;;;8.35;6.40;;;7.40;99.90;;;;;;5038135;28;20029;-82
2024/03/17 04:00:13;;;;;;;9.02;6.75;;;7.50;99.90;;;;;;5038515;28;20025;-82
2024/03/17 04:02:39;;;;;;;7.43;5.75;;;7.50;99.90;;;;;;5056306;28;20040;-82
2024/03/17 04:05:06;;;;;;;9.68;6.15;;;7.50;99.90;;;;;;5037768;28;20029;-83
2024/03/17 04:07:32;;;;;;;8.05;5.75;;;7.50;99.90;;;;;;5055662;28;20449;-82
2024/03/17 04:10:00;;;;;;;10.10;6.75;;;7.60;99.90;;;;;;5038096;28;20033;-82
2024/03/17 04:12:27;;;;;;;8.25;6.10;;;7.50;99.90;;;;;;5037541;28;20055;-83
2024/03/17 04:14:53;;;;;;;9.43;6.50;;;7.60;99.90;;;;;;5037969;28;20090;-83
2024/03/17 04:17:21;;;;;;;10.52;6.78;;;7.60;99.90;;;;;;5034287;28;20453;-83
2024/03/17 04:19:48;;;;;;;8.85;6.63;;;7.60;99.90;;;;;;5034579;28;20048;-83
2024/03/17 04:22:15;;;;;;;8.95;6.57;;;7.70;99.90;;;;;;5034560;28;20049;-83
2024/03/17 04:24:41;;;;;;;10.18;7.20;;;7.70;99.90;;;;;;5035212;28;20083;-83
2024/03/17 04:27:06;;;;;;;11.35;7.20;;;7.70;99.90;;;;;;5022513;28;20033;-83
2024/03/17 04:29:32;;;;;;;9.70;7.22;;;7.60;99.90;;;;;;5041940;28;20098;-82
2024/03/17 04:31:58;;;;;;;12.23;6.97;;;7.70;99.90;;;;;;5041981;28;20029;-81
2024/03/17 04:34:23;;;;;;;8.98;6.57;;;7.70;99.90;;;;;;5041859;28;20088;-82
2024/03/17 04:36:49;;;;;;;11.68;7.60;;;7.70;99.90;;;;;;5044897;28;20041;-83
2024/03/17 04:39:15;;;;;;;10.20;7.80;;;7.70;99.90;;;;;;5034196;28;20381;-83
2024/03/17 04:41:43;;;;;;;8.57;6.75;;;7.70;99.90;;;;;;5035329;28;20040;-83
2024/03/17 04:44:09;;;;;;;10.95;7.50;;;7.70;99.90;;;;;;5032695;28;20045;-82
2024/03/17 04:46:35;;;;;;;11.55;7.53;;;7.70;99.90;;;;;;5017329;28;20025;-83
2024/03/17 04:49:03;;;;;;;9.18;7.50;;;7.70;99.90;;;;;;5033986;28;20099;-83
2024/03/17 04:51:29;;;;;;;9.80;7.57;;;7.70;99.90;;;;;;5017655;28;20580;-82
2024/03/17 04:53:55;;;;;;;11.60;7.75;;;7.70;99.90;;;;;;5033180;28;20041;-83
2024/03/17 04:56:21;;;;;;;9.80;7.47;;;7.70;99.90;;;;;;5033519;28;20061;-84
2024/03/17 04:58:46;;;;;;;10.50;7.88;;;7.70;99.90;;;;;;5017110;28;20539;-83
2024/03/17 05:01:12;;;;;;;10.93;7.70;;;7.70;99.90;;;;;;5033239;28;20021;-83
2024/03/17 05:03:39;;;;;;;9.68;7.45;;;7.60;99.90;;;;;;5017176;28;20053;-83
2024/03/17 05:06:05;;;;;;;11.32;7.70;;;7.60;99.90;;;;;;5033247;28;20041;-82
2024/03/17 05:08:32;;;;;;;12.13;8.02;;;7.60;99.90;;;;;;5017015;28;20531;-82
2024/03/17 05:11:04;;;;;;;11.68;7.70;;;7.60;99.90;;;;;;5034669;28;20029;-83
2024/03/17 05:13:32;;;;;;;13.05;8.38;;;7.60;99.90;;;;;;5017446;28;20025;-82
2024/03/17 05:15:59;;;;;;;9.07;7.53;;;7.60;99.90;;;;;;5016728;28;20053;-83
2024/03/17 05:18:26;;;;;;;10.75;7.80;;;7.60;99.90;;;;;;5033598;28;20465;-83
2024/03/17 05:21:10;;;;;;;11.93;8.00;;;7.60;99.90;;;;;;5034953;28;20473;-83
2024/03/17 05:23:37;;;;;;;11.98;7.60;;;7.60;99.90;;;;;;5033504;28;20505;-83
2024/03/17 05:26:06;;;;;;;12.13;8.15;;;7.60;99.90;;;;;;5033338;28;20017;-83
2024/03/17 05:28:32;;;;;;;11.98;8.35;;;7.70;99.90;;;;;;5017124;28;20025;-83
2024/03/17 05:30:58;;;;;;;10.50;8.23;;;7.70;99.90;;;;;;5033281;28;20384;-82
2024/03/17 05:33:26;;;;;;;11.55;7.97;;;7.70;99.90;;;;;;5032494;28;20026;-81
2024/03/17 05:35:53;;;;;;;10.95;8.73;;;7.70;99.90;;;;;;5033084;28;20076;-83
2024/03/17 05:38:20;;;;;;;10.32;8.30;;;7.70;99.90;;;;;;5033959;28;20479;-83
2024/03/17 05:41:02;;;;;;;10.45;8.30;;;7.70;99.90;;;;;;5034338;28;20028;-83
2024/03/17 05:43:29;;;;;;;11.75;8.85;;;7.70;99.90;;;;;;5032168;28;20083;-82
2024/03/17 05:46:00;;;;;;;11.05;8.52;;;7.70;99.90;;;;;;5032674;28;20037;-83
2024/03/17 05:48:26;;;;;;;9.57;8.30;;;7.60;99.90;;;;;;5017174;28;20025;-82
2024/03/17 05:50:52;;;;;;;11.23;8.50;;;7.60;99.90;;;;;;5016693;28;20041;-82
2024/03/17 05:53:19;;;;;;;10.05;8.35;;;7.60;99.90;;;;;;5017826;28;20037;-83
2024/03/17 05:55:45;;;;;;;13.00;9.23;;;7.70;99.90;;;;;;5075294;28;20033;-81
2024/03/17 05:58:11;;;;;;;10.82;8.20;;;7.70;99.90;;;;;;5061498;28;20005;-81
2024/03/17 06:00:38;;;;;;;10.13;8.13;;;7.70;99.90;;;;;;5044012;28;20034;-83
2024/03/17 06:03:05;;;;;;;11.30;8.52;;;7.70;99.90;;;;;;5052946;28;20029;-83
2024/03/17 06:05:40;;;;;;;12.13;8.25;;;7.70;99.90;;;;;;5020649;28;20369;-83
2024/03/17 06:08:08;;;;;;;13.13;8.90;;;7.70;99.90;;;;;;5020228;28;20064;-81
2024/03/17 06:10:36;;;;;;;12.15;9.52;;;7.70;99.90;;;;;;5019788;28;20026;-81
2024/03/17 06:13:02;;;;;;;10.13;8.23;;;7.70;99.90;;;;;;5036455;28;20021;-82
2024/03/17 06:15:31;;;;;;;12.32;9.55;;;7.70;99.90;;;;;;5036534;28;20037;-81
2024/03/17 06:17:57;;;;;;;10.43;9.00;;;7.60;99.90;;;;;;5036656;28;20096;-83
2024/03/17 06:20:26;;;;;;;11.43;9.15;;;7.60;99.90;;;;;;5019967;28;20021;-82
2024/03/17 06:22:53;;;;;;;15.23;9.75;;;7.70;99.90;;;;;;5037663;28;20108;-83
2024/03/17 06:25:18;;;;;;;10.50;8.65;;;7.70;99.90;;;;;;5040129;28;20033;-82
2024/03/17 06:27:44;;;;;;;11.43;9.20;;;7.80;99.90;;;;;;5039090;28;20429;-84
2024/03/17 06:30:16;;;;;;;12.75;9.50;;;7.80;99.90;;;;;;5022621;28;20057;-82
2024/03/17 06:32:45;;;;;;;11.45;9.68;;;7.90;99.90;;;;;;5038021;28;20458;-82
2024/03/17 06:35:18;;;;;;;13.20;9.05;;;8.00;99.90;;;;;;5036563;28;20037;-83
2024/03/17 06:37:44;;;;;;;12.88;9.85;;;8.00;99.90;;;;;;5020392;28;20037;-84
2024/03/17 06:40:14;;;;;;;12.05;9.57;;;8.10;99.90;;;;;;5037126;28;20470;-82
2024/03/17 06:42:40;;;;;;;11.48;9.60;;;8.10;99.90;;;;;;5035794;28;20017;-82
2024/03/17 06:45:08;;;;;;;10.63;9.15;;;8.20;99.90;;;;;;5037370;28;20087;-83
2024/03/17 06:47:37;;;;;;;10.93;9.05;;;8.20;99.90;;;;;;5019838;28;20025;-83
2024/03/17 06:50:09;;;;;;;11.55;9.20;;;8.20;99.90;;;;;;5019832;28;20057;-82
2024/03/17 06:52:35;;;;;;;10.85;8.98;;;8.30;99.90;;;;;;5019736;28;20155;-82
2024/03/17 06:55:01;;;;;;;11.80;9.48;;;8.30;99.90;;;;;;5019228;28;20025;-86
2024/03/17 06:57:27;;;;;;;14.27;9.80;;;8.40;99.90;;;;;;5019161;28;20029;-85
2024/03/17 06:59:53;;;;;;;11.20;9.23;;;8.50;99.90;;;;;;5035900;28;20184;-84
2024/03/17 07:02:19;;;;;;;11.48;8.98;;;8.50;99.90;;;;;;5035607;28;20081;-85
2024/03/17 07:04:46;;;;;;;10.95;9.13;;;8.50;99.90;;;;;;5035723;28;20044;-85
2024/03/17 07:07:12;;;;;;;11.63;9.05;;;8.60;99.90;;;;;;5018878;28;20409;-87
2024/03/17 07:09:41;;;;;;;10.85;8.75;;;8.70;99.90;;;;;;5018830;28;20069;-83
2024/03/17 07:12:08;;;;;;;10.57;8.73;;;8.70;99.90;;;;;;5035466;28;20029;-85
2024/03/17 07:14:34;;;;;;;11.85;8.52;;;8.70;99.90;;;;;;5035652;28;20116;-86
2024/03/17 07:16:59;;;;;;;11.10;8.30;;;8.80;99.90;;;;;;5035610;28;20493;-86
2024/03/17 07:19:25;;;;;;;9.95;8.65;;;8.80;99.90;;;;;;5036623;28;20063;-85
2024/03/17 07:21:51;;;;;;;11.13;8.98;;;8.90;99.90;;;;;;5047083;28;20029;-86
2024/03/17 07:24:16;;;;;;;11.02;9.00;;;8.90;99.90;;;;;;5042921;28;20047;-85
2024/03/17 07:26:42;;;;;;;9.40;7.60;;;8.90;99.90;;;;;;5059374;28;20022;-84
2024/03/17 07:29:11;;;;;;;12.43;8.55;;;9.00;99.90;;;;;;5058170;28;20018;-85
2024/03/17 07:31:39;;;;;;;8.88;7.95;;;9.00;99.90;;;;;;5022522;28;20473;-86
2024/03/17 07:34:05;;;;;;;9.00;7.88;;;9.00;99.90;;;;;;5036233;28;20078;-86
2024/03/17 07:36:30;;;;;;;9.88;8.10;;;9.10;99.90;;;;;;5018963;28;20084;-86
2024/03/17 07:38:56;;;;;;;9.65;7.13;;;9.00;99.90;;;;;;5035012;28;20488;-86
2024/03/17 07:41:24;;;;;;;8.93;7.22;;;9.10;99.90;;;;;;5036476;28;20033;-85
2024/03/17 07:43:49;;;;;;;9.85;7.65;;;9.20;99.90;;;;;;5018507;28;20026;-84
2024/03/17 07:46:16;;;;;;;9.55;7.05;;;9.20;99.90;;;;;;5036422;28;20021;-86
2024/03/17 07:48:43;;;;;;;8.45;6.60;;;9.20;99.90;;;;;;5035211;28;20029;-85
2024/03/17 07:51:13;;;;;;;9.38;7.53;;;9.30;99.90;;;;;;5035340;28;20026;-85
2024/03/17 07:53:51;;;;;;;10.13;6.95;;;9.40;99.90;;;;;;5035514;28;20025;-83
2024/03/17 07:56:19;;;;;;;8.88;6.80;;;9.50;99.90;;;;;;5034567;28;20030;-86
2024/03/17 07:58:47;;;;;;;9.10;6.55;;;9.60;99.90;;;;;;5034701;28;20029;-85
2024/03/17 08:01:15;;;;;;;10.75;6.47;;;9.60;99.90;;;;;;5034132;28;20112;-85
2024/03/17 08:03:44;;;;;;;9.43;5.78;;;9.70;99.90;;;;;;5034465;28;20092;-84
2024/03/17 08:06:13;;;;;;;10.57;6.40;;;9.80;99.90;;;;;;5034537;28;20057;-85
2024/03/17 08:08:39;;;;;;;7.93;6.22;;;9.90;99.90;;;;;;5034393;28;20452;-85
2024/03/17 08:11:08;;;;;;;6.85;5.88;;;9.90;99.90;;;;;;5034204;28;20057;-85
2024/03/17 08:13:34;;;;;;;8.93;6.18;;;10.00;99.90;;;;;;5017782;28;20488;-85
2024/03/17 08:16:05;;;;;;;6.25;5.40;;;10.00;99.90;;;;;;5035746;28;20127;-85
2024/03/17 08:18:32;;;;;;;7.70;5.97;;;10.00;99.90;;;;;;5037120;28;20407;-85
2024/03/17 08:21:04;;;;;;;6.60;5.28;;;10.10;99.90;;;;;;5037609;28;20044;-86
2024/03/17 08:23:30;;;;;;;7.55;5.85;;;10.10;99.90;;;;;;5055388;28;20449;-86
2024/03/17 08:25:57;;;;;;;6.28;5.20;;;10.20;99.90;;;;;;5037577;28;20029;-84
2024/03/17 08:28:24;;;;;;;7.45;5.47;;;10.30;99.90;;;;;;5021245;28;20021;-85
2024/03/17 08:31:03;;;;;;;7.80;5.15;;;10.30;99.90;;;;;;5040858;28;20021;-88
2024/03/17 08:33:30;;;;;;;5.32;4.82;;;10.40;99.90;;;;;;5038402;28;20059;-88
2024/03/17 08:36:17;;;;;;;7.38;4.55;;;10.40;99.90;;;;;;5038421;28;20029;-87
2024/03/17 08:38:43;;;;;;;6.90;4.80;;;10.50;99.90;;;;;;5037707;28;20465;-88
2024/03/17 08:41:10;;;;;;;5.40;4.72;;;10.50;99.90;;;;;;5021272;28;20040;-87
2024/03/17 08:43:36;;;;;;;6.20;4.70;;;10.60;99.90;;;;;;5037697;28;20542;-87
2024/03/17 08:46:06;;;;;;;6.30;4.80;;;10.60;99.90;;;;;;5055588;28;20033;-87
2024/03/17 08:48:34;;;;;;;7.32;5.35;;;10.70;99.90;;;;;;5037903;28;20033;-85
2024/03/17 08:51:01;;;;;;;6.10;5.32;;;10.70;99.90;;;;;;5042827;28;20032;-85
2024/03/17 08:53:35;;;;;;;6.95;4.90;;;10.80;99.90;;;;;;5045183;28;20009;-85
2024/03/17 08:56:02;;;;;;;7.13;4.40;;;10.80;99.90;;;;;;5061089;28;20036;-84
2024/03/17 08:58:28;;;;;;;5.68;5.07;;;10.90;99.90;;;;;;5061389;28;20009;-84
2024/03/17 09:00:54;;;;;;;6.95;4.75;;;10.90;99.90;;;;;;5057216;28;20082;-85
2024/03/17 09:03:20;;;;;;;5.90;5.07;;;10.90;99.90;;;;;;5037272;28;20029;-83
2024/03/17 09:05:50;;;;;;;5.53;4.63;;;10.90;99.90;;;;;;5036833;28;20370;-85
2024/03/17 09:08:24;;;;;;;5.68;4.70;;;11.00;99.90;;;;;;5021132;28;20040;-85
2024/03/17 09:10:52;;;;;;;5.43;4.20;;;11.00;99.90;;;;;;5020113;28;20025;-83
2024/03/17 09:13:23;;;;;;;6.38;4.78;;;11.00;99.90;;;;;;5036903;28;20056;-87
2024/03/17 09:15:59;;;;;;;5.70;4.50;;;11.00;99.90;;;;;;5036574;28;20472;-84
2024/03/17 09:18:32;;;;;;;6.10;4.70;;;11.10;99.90;;;;;;5021033;28;20031;-85
2024/03/17 09:21:04;;;;;;;6.63;4.47;;;11.10;99.90;;;;;;5036931;28;20032;-84
2024/03/17 09:23:33;;;;;;;7.07;4.50;;;11.10;99.90;;;;;;5039687;28;20036;-86
2024/03/17 09:26:02;;;;;;;8.57;4.85;;;11.10;99.90;;;;;;5030880;28;20041;-86
2024/03/17 09:28:31;;;;;;;6.93;4.55;;;11.20;99.90;;;;;;5063937;28;20021;-83
2024/03/17 09:30:58;;;;;;;6.25;4.40;;;11.20;99.90;;;;;;5042360;28;20028;-85
2024/03/17 09:33:25;;;;;;;6.13;4.55;;;11.30;99.90;;;;;;5039256;28;20024;-84
2024/03/17 09:35:55;;;;;;;6.35;4.45;;;11.30;99.90;;;;;;5020052;28;20025;-84
2024/03/17 09:38:21;;;;;;;6.88;4.53;;;11.30;99.90;;;;;;5054215;28;20104;-87
2024/03/17 09:40:53;;;;;;;4.57;4.15;;;11.40;99.90;;;;;;5036345;28;20055;-86
2024/03/17 09:43:22;;;;;;;6.13;4.47;;;11.40;99.90;;;;;;5054457;28;20021;-85
2024/03/17 09:45:49;;;;;;;6.45;4.50;;;11.40;99.90;;;;;;5019745;28;20084;-87
2024/03/17 09:48:17;;;;;;;5.88;5.03;;;11.50;99.90;;;;;;5036219;28;20017;-85
2024/03/17 09:50:55;;;;;;;6.47;4.55;;;11.50;99.90;;;;;;5020031;28;20033;-86
2024/03/17 09:53:34;;;;;;;6.10;4.18;;;11.50;99.90;;;;;;5036401;28;20024;-85
2024/03/17 09:56:15;;;;;;;4.88;3.85;;;11.60;99.90;;;;;;5036005;28;20048;-84
2024/03/17 09:58:41;;;;;;;7.10;4.90;;;11.60;99.90;;;;;;5035915;28;20025;-85
2024/03/17 10:01:07;;;;;;;5.55;4.30;;;11.70;99.90;;;;;;5018985;28;20029;-84
2024/03/17 10:04:03;;;;;;;7.78;4.63;;;11.70;99.90;;;;;;5019304;28;20029;-85
2024/03/17 10:06:38;;;;;;;6.07;4.28;;;11.80;99.90;;;;;;5022113;28;20129;-87
2024/03/17 10:09:09;;;;;;;5.13;4.20;;;11.80;99.90;;;;;;5006382;28;20055;-88
2024/03/17 10:11:36;;;;;;;;;;;11.90;99.90;;;;;;5021264;28;20025;-86
2024/03/17 10:14:07;;;;;;;6.00;4.53;;;11.90;99.90;;;;;;5019901;28;19917;-85
2024/03/17 10:16:37;;;;;;;8.43;4.32;;;11.90;99.90;;;;;;5035716;28;20053;-84
2024/03/17 10:19:16;;;;;;;7.30;5.55;;;12.00;99.90;;;;;;5053874;28;20021;-84
2024/03/17 10:21:49;;;;;;;5.57;4.80;;;12.00;99.90;;;;;;5020833;28;20358;-87
2024/03/17 10:24:27;;;;;;;6.93;4.53;;;12.00;99.90;;;;;;5044093;28;20033;-85
2024/03/17 10:26:55;;;;;;;7.25;4.60;;;12.10;99.90;;;;;;5077462;28;20032;-85
2024/03/17 10:29:33;;;;;;;5.03;4.43;;;12.10;99.90;;;;;;5043787;28;20017;-83
2024/03/17 10:32:13;;;;;;;6.90;5.15;;;12.20;99.90;;;;;;5055332;28;20096;-84
2024/03/17 10:34:39;;;;;;;6.45;5.50;;;12.20;99.90;;;;;;5056172;28;20103;-83
2024/03/17 10:37:10;;;;;;;7.13;5.70;;;12.30;99.90;;;;;;5019672;28;20260;-83
2024/03/17 10:39:37;;;;;;;7.47;5.57;;;12.30;99.90;;;;;;5036235;28;20504;-84
2024/03/17 10:42:05;;;;;;;10.80;5.95;;;12.30;99.90;;;;;;5038381;28;20039;-84
2024/03/17 10:44:32;;;;;;;6.20;5.00;;;12.40;99.90;;;;;;5022923;28;20033;-84
2024/03/17 10:47:13;;;;;;;8.68;5.45;;;12.40;99.90;;;;;;5039710;28;20473;-84
2024/03/17 10:49:39;;;;;;;6.45;5.47;;;12.50;99.90;;;;;;5039009;28;20128;-84
2024/03/17 10:52:17;;;;;;;6.85;5.45;;;12.50;99.90;;;;;;5022554;28;20053;-84
2024/03/17 10:54:52;;;;;;;6.70;4.47;;;12.60;99.90;;;;;;5057122;28;20025;-85
2024/03/17 10:57:36;;;;;;;5.40;4.80;;;12.60;99.90;;;;;;5022376;28;20035;-83
2024/03/17 11:00:05;;;;;;;7.30;5.95;;;12.70;99.90;;;;;;5038453;28;20432;-84
2024/03/17 11:02:35;;;;;;;6.63;5.63;;;12.70;99.90;;;;;;5039277;28;20388;-85
2024/03/17 11:05:29;;;;;;;6.75;5.80;;;12.70;99.90;;;;;;5022965;28;20489;-83
2024/03/17 11:07:59;;;;;;;6.68;5.97;;;12.70;99.90;;;;;;5039221;28;20025;-84
2024/03/17 11:10:30;;;;;;;7.75;6.15;;;12.70;99.90;;;;;;5038772;28;20021;-83
2024/03/17 11:13:01;;;;;;;7.82;6.65;;;12.70;99.90;;;;;;5056529;28;20025;-82
2024/03/17 11:15:29;;;;;;;9.45;6.38;;;12.70;99.90;;;;;;5037630;28;20492;-83
2024/03/17 11:18:13;;;;;;;6.97;5.30;;;12.70;99.90;;;;;;5038199;28;20045;-83
2024/03/17 11:20:41;;;;;;;6.57;5.47;;;12.70;99.90;;;;;;5038625;28;20028;-84
2024/03/17 11:23:07;;;;;;;6.50;5.63;;;12.70;99.90;;;;;;5038475;28;20021;-85
2024/03/17 11:25:37;;;;;;;5.43;4.80;;;12.70;99.90;;;;;;5021726;28;20033;-85
2024/03/17 11:28:10;;;;;;;8.70;5.85;;;12.80;99.90;;;;;;5038464;28;20029;-88
2024/03/17 11:30:43;;;;;;;7.05;5.60;;;12.80;99.90;;;;;;5038331;28;20021;-85
2024/03/17 11:33:30;;;;;;;7.47;5.75;;;12.80;99.90;;;;;;5038428;28;20457;-85
2024/03/17 11:36:21;;;;;;;7.50;5.82;;;12.70;99.90;;;;;;5056164;28;20116;-84
2024/03/17 11:39:00;;;;;;;9.67;5.83;;;12.70;99.90;;;;;;5038100;28;20024;-83
2024/03/17 11:41:47;;;;;;;8.23;6.88;;;12.70;99.90;;;;;;5056545;28;20071;-85
2024/03/17 11:44:18;;;;;;;8.10;6.30;;;12.60;99.90;;;;;;5038946;28;20103;-84
2024/03/17 11:47:04;;;;;;;8.13;5.80;;;12.60;99.90;;;;;;5057309;28;20017;-83
2024/03/17 11:49:38;;;;;;;9.32;6.72;;;12.70;99.90;;;;;;5037677;28;20485;-86
2024/03/17 11:52:15;;;;;;;7.95;6.35;;;12.70;99.90;;;;;;5038804;28;20068;-85
2024/03/17 11:54:45;;;;;;;8.45;5.82;;;12.60;99.90;;;;;;5056085;28;20025;-85
2024/03/17 11:57:13;;;;;;;7.30;6.13;;;12.60;99.90;;;;;;5039182;28;20073;-88
2024/03/17 11:59:39;;;;;;;9.90;6.15;;;12.70;99.90;;;;;;5065765;28;20013;-85
2024/03/17 12:02:27;;;;;;;10.10;6.47;;;12.60;99.90;;;;;;5061748;28;20005;-84
2024/03/17 12:04:56;;;;;;;7.50;6.15;;;12.70;99.90;;;;;;5079618;28;20047;-83
2024/03/17 12:07:23;;;;;;;7.03;5.55;;;12.70;99.90;;;;;;5046074;28;20059;-83
2024/03/17 12:09:56;;;;;;;6.95;6.10;;;12.70;99.90;;;;;;5061373;28;20025;-86
2024/03/17 12:12:35;;;;;;;8.15;5.80;;;12.70;99.90;;;;;;5044072;28;20025;-85
2024/03/17 12:15:02;;;;;;;7.50;6.32;;;12.80;99.90;;;;;;5050163;28;20029;-86
2024/03/17 12:17:28;;;;;;;6.82;5.82;;;12.80;99.90;;;;;;5060771;28;20057;-85
2024/03/17 12:19:55;;;;;;;8.63;6.22;;;12.80;99.90;;;;;;5024969;28;20021;-86
2024/03/17 12:22:24;;;;;;;10.02;6.32;;;12.80;99.90;;;;;;5041596;28;20116;-85
2024/03/17 12:24:51;;;;;;;7.70;6.25;;;12.70;99.90;;;;;;5042019;28;20060;-85
2024/03/17 12:27:25;;;;;;;8.20;5.97;;;12.80;99.90;;;;;;5047668;28;20029;-85
2024/03/17 12:29:55;;;;;;;7.05;5.60;;;12.80;99.90;;;;;;5057676;28;20025;-83
2024/03/17 12:32:22;;;;;;;7.30;5.80;;;12.90;99.90;;;;;;5071094;28;20013;-83
2024/03/17 12:35:01;;;;;;;9.02;6.57;;;12.90;99.90;;;;;;5049845;28;20314;-85
2024/03/17 12:37:33;;;;;;;8.93;6.00;;;13.00;99.90;;;;;;5063737;28;20032;-81
2024/03/17 12:40:00;;;;;;;11.55;6.72;;;13.00;99.90;;;;;;5042147;28;20423;-84
2024/03/17 12:42:27;;;;;;;7.95;6.80;;;13.00;99.90;;;;;;5040404;28;20029;-83
2024/03/17 12:44:57;;;;;;;10.27;6.80;;;13.00;99.90;;;;;;5022528;28;20036;-83
2024/03/17 12:47:25;;;;;;;7.50;6.03;;;13.00;99.90;;;;;;5020725;28;20500;-82
2024/03/17 12:49:52;;;;;;;8.23;6.10;;;13.10;99.90;;;;;;5055078;28;20078;-83
2024/03/17 12:52:24;;;;;;;7.88;6.10;;;13.10;99.90;;;;;;5037219;28;20118;-84
2024/03/17 13:00:36;;;;;;;8.50;6.43;;;13.10;99.90;;;;;;5039491;28;20079;-83
2024/03/17 13:03:03;;;;;;;8.52;7.10;;;13.10;99.90;;;;;;5054283;28;20079;-83
2024/03/17 13:05:31;;;;;;;11.57;6.93;;;13.10;99.90;;;;;;5019196;28;20587;-82
2024/03/17 13:08:01;;;;;;;9.40;6.97;;;13.20;99.90;;;;;;5036860;28;20025;-84